sensor_id;sensor_type;location;lat;lon;timestamp;P1;durP1;ratioP1;P2;durP2;ratioP2
70705;SDS011;59320;52.316;10.870;2023-04-26T00:00:50;6.15;;;1.30;;
70705;SDS011;59320;52.316;10.870;2023-04-26T00:03:19;8.18;;;1.40;;
70705;SDS011;59320;52.316;10.870;2023-04-26T00:05:47;6.70;;;1.65;;
70705;SDS011;59320;52.316;10.870;2023-04-26T00:08:17;5.93;;;1.50;;
70705;SDS011;59320;52.316;10.870;2023-04-26T00:10:44;6.80;;;1.55;;
70705;SDS011;59320;52.316;10.870;2023-04-26T00:13:11;6.10;;;1.63;;
70705;SDS011;59320;52.316;10.870;2023-04-26T00:15:38;4.60;;;1.27;;
70705;SDS011;59320;52.316;10.870;2023-04-26T00:18:05;5.35;;;1.55;;
70705;SDS011;59320;52.316;10.870;2023-04-26T00:20:32;8.43;;;1.88;;
70705;SDS011;59320;52.316;10.870;2023-04-26T00:22:59;9.25;;;1.92;;
70705;SDS011;59320;52.316;10.870;2023-04-26T00:25:28;5.45;;;1.48;;
70705;SDS011;59320;52.316;10.870;2023-04-26T00:27:55;8.45;;;1.92;;
70705;SDS011;59320;52.316;10.870;2023-04-26T00:30:22;8.93;;;2.08;;
70705;SDS011;59320;52.316;10.870;2023-04-26T00:32:49;8.60;;;1.98;;
70705;SDS011;59320;52.316;10.870;2023-04-26T00:35:17;5.88;;;1.80;;
70705;SDS011;59320;52.316;10.870;2023-04-26T00:37:45;10.18;;;2.47;;
70705;SDS011;59320;52.316;10.870;2023-04-26T00:40:12;6.75;;;1.90;;
70705;SDS011;59320;52.316;10.870;2023-04-26T00:42:41;11.73;;;2.97;;
70705;SDS011;59320;52.316;10.870;2023-04-26T00:45:09;11.05;;;2.25;;
70705;SDS011;59320;52.316;10.870;2023-04-26T00:47:36;6.40;;;1.75;;
70705;SDS011;59320;52.316;10.870;2023-04-26T00:50:04;11.63;;;2.80;;
70705;SDS011;59320;52.316;10.870;2023-04-26T00:52:34;9.35;;;2.70;;
70705;SDS011;59320;52.316;10.870;2023-04-26T00:55:02;12.15;;;3.15;;
70705;SDS011;59320;52.316;10.870;2023-04-26T00:57:29;9.45;;;2.70;;
70705;SDS011;59320;52.316;10.870;2023-04-26T00:59:59;11.88;;;2.72;;
70705;SDS011;59320;52.316;10.870;2023-04-26T01:02:26;6.03;;;2.20;;
70705;SDS011;59320;52.316;10.870;2023-04-26T01:04:53;8.43;;;2.47;;
70705;SDS011;59320;52.316;10.870;2023-04-26T01:07:20;10.07;;;2.53;;
70705;SDS011;59320;52.316;10.870;2023-04-26T01:09:48;9.38;;;2.80;;
70705;SDS011;59320;52.316;10.870;2023-04-26T01:12:15;8.48;;;2.30;;
70705;SDS011;59320;52.316;10.870;2023-04-26T01:14:43;10.13;;;2.30;;
70705;SDS011;59320;52.316;10.870;2023-04-26T01:17:12;6.60;;;2.30;;
70705;SDS011;59320;52.316;10.870;2023-04-26T01:19:45;9.38;;;2.78;;
70705;SDS011;59320;52.316;10.870;2023-04-26T01:22:14;7.00;;;2.20;;
70705;SDS011;59320;52.316;10.870;2023-04-26T01:24:44;10.68;;;2.20;;
70705;SDS011;59320;52.316;10.870;2023-04-26T01:27:14;7.00;;;2.20;;
70705;SDS011;59320;52.316;10.870;2023-04-26T01:29:42;10.63;;;2.83;;
70705;SDS011;59320;52.316;10.870;2023-04-26T01:32:10;10.35;;;2.55;;
70705;SDS011;59320;52.316;10.870;2023-04-26T01:34:37;7.43;;;2.88;;
70705;SDS011;59320;52.316;10.870;2023-04-26T01:37:04;10.35;;;2.17;;
70705;SDS011;59320;52.316;10.870;2023-04-26T01:39:32;6.43;;;2.30;;
70705;SDS011;59320;52.316;10.870;2023-04-26T01:42:02;9.73;;;2.47;;
70705;SDS011;59320;52.316;10.870;2023-04-26T01:44:30;7.35;;;2.88;;
70705;SDS011;59320;52.316;10.870;2023-04-26T01:47:00;9.02;;;2.20;;
70705;SDS011;59320;52.316;10.870;2023-04-26T01:49:27;7.75;;;2.40;;
70705;SDS011;59320;52.316;10.870;2023-04-26T01:51:54;10.02;;;2.75;;
70705;SDS011;59320;52.316;10.870;2023-04-26T01:54:22;8.75;;;2.40;;
70705;SDS011;59320;52.316;10.870;2023-04-26T01:56:51;10.90;;;2.70;;
70705;SDS011;59320;52.316;10.870;2023-04-26T01:59:20;9.55;;;2.70;;
70705;SDS011;59320;52.316;10.870;2023-04-26T02:01:47;11.77;;;2.65;;
70705;SDS011;59320;52.316;10.870;2023-04-26T02:04:15;8.98;;;2.63;;
70705;SDS011;59320;52.316;10.870;2023-04-26T02:06:42;7.53;;;2.67;;
70705;SDS011;59320;52.316;10.870;2023-04-26T02:09:09;8.15;;;2.72;;
70705;SDS011;59320;52.316;10.870;2023-04-26T02:11:38;7.82;;;2.75;;
70705;SDS011;59320;52.316;10.870;2023-04-26T02:14:05;9.55;;;3.08;;
70705;SDS011;59320;52.316;10.870;2023-04-26T02:16:34;8.13;;;2.78;;
70705;SDS011;59320;52.316;10.870;2023-04-26T02:19:02;11.75;;;3.05;;
70705;SDS011;59320;52.316;10.870;2023-04-26T02:21:29;8.55;;;2.53;;
70705;SDS011;59320;52.316;10.870;2023-04-26T02:23:56;7.63;;;2.28;;
70705;SDS011;59320;52.316;10.870;2023-04-26T02:26:23;8.80;;;2.85;;
70705;SDS011;59320;52.316;10.870;2023-04-26T02:28:51;13.45;;;3.10;;
70705;SDS011;59320;52.316;10.870;2023-04-26T02:31:18;5.75;;;2.67;;
70705;SDS011;59320;52.316;10.870;2023-04-26T02:33:46;15.15;;;2.78;;
70705;SDS011;59320;52.316;10.870;2023-04-26T02:36:13;11.63;;;3.13;;
70705;SDS011;59320;52.316;10.870;2023-04-26T02:38:40;11.85;;;2.63;;
70705;SDS011;59320;52.316;10.870;2023-04-26T02:41:07;6.05;;;2.30;;
70705;SDS011;59320;52.316;10.870;2023-04-26T02:43:34;7.80;;;2.58;;
70705;SDS011;59320;52.316;10.870;2023-04-26T02:46:02;10.88;;;2.50;;
70705;SDS011;59320;52.316;10.870;2023-04-26T02:48:32;9.00;;;2.83;;
70705;SDS011;59320;52.316;10.870;2023-04-26T02:51:00;7.68;;;2.58;;
70705;SDS011;59320;52.316;10.870;2023-04-26T02:53:28;9.00;;;2.80;;
70705;SDS011;59320;52.316;10.870;2023-04-26T02:55:55;13.38;;;2.75;;
70705;SDS011;59320;52.316;10.870;2023-04-26T02:58:22;13.55;;;2.63;;
70705;SDS011;59320;52.316;10.870;2023-04-26T03:00:49;8.70;;;2.90;;
70705;SDS011;59320;52.316;10.870;2023-04-26T03:03:16;9.40;;;2.30;;
70705;SDS011;59320;52.316;10.870;2023-04-26T03:05:44;6.32;;;2.30;;
70705;SDS011;59320;52.316;10.870;2023-04-26T03:08:12;7.88;;;2.55;;
70705;SDS011;59320;52.316;10.870;2023-04-26T03:10:40;8.68;;;2.17;;
70705;SDS011;59320;52.316;10.870;2023-04-26T03:13:07;7.90;;;2.20;;
70705;SDS011;59320;52.316;10.870;2023-04-26T03:15:34;6.53;;;2.30;;
70705;SDS011;59320;52.316;10.870;2023-04-26T03:18:01;7.00;;;2.60;;
70705;SDS011;59320;52.316;10.870;2023-04-26T03:20:28;6.43;;;2.55;;
70705;SDS011;59320;52.316;10.870;2023-04-26T03:22:55;7.40;;;2.42;;
70705;SDS011;59320;52.316;10.870;2023-04-26T03:25:24;9.68;;;2.75;;
70705;SDS011;59320;52.316;10.870;2023-04-26T03:27:51;9.40;;;2.50;;
70705;SDS011;59320;52.316;10.870;2023-04-26T03:30:20;6.93;;;2.60;;
70705;SDS011;59320;52.316;10.870;2023-04-26T03:32:47;8.70;;;2.47;;
70705;SDS011;59320;52.316;10.870;2023-04-26T03:35:14;10.55;;;2.35;;
70705;SDS011;59320;52.316;10.870;2023-04-26T03:37:41;5.53;;;2.38;;
70705;SDS011;59320;52.316;10.870;2023-04-26T03:40:11;5.65;;;2.08;;
70705;SDS011;59320;52.316;10.870;2023-04-26T03:42:40;8.82;;;2.22;;
70705;SDS011;59320;52.316;10.870;2023-04-26T03:45:07;11.23;;;2.63;;
70705;SDS011;59320;52.316;10.870;2023-04-26T03:47:35;13.20;;;3.13;;
70705;SDS011;59320;52.316;10.870;2023-04-26T03:50:02;9.20;;;2.92;;
70705;SDS011;59320;52.316;10.870;2023-04-26T03:52:30;7.28;;;2.58;;
70705;SDS011;59320;52.316;10.870;2023-04-26T03:54:57;7.63;;;2.67;;
70705;SDS011;59320;52.316;10.870;2023-04-26T03:57:24;9.20;;;3.35;;
70705;SDS011;59320;52.316;10.870;2023-04-26T03:59:53;9.57;;;3.17;;
70705;SDS011;59320;52.316;10.870;2023-04-26T04:02:21;7.10;;;2.63;;
70705;SDS011;59320;52.316;10.870;2023-04-26T04:04:48;10.45;;;2.95;;
70705;SDS011;59320;52.316;10.870;2023-04-26T04:07:15;11.25;;;3.00;;
70705;SDS011;59320;52.316;10.870;2023-04-26T04:09:43;7.57;;;2.60;;
70705;SDS011;59320;52.316;10.870;2023-04-26T04:12:10;7.30;;;2.90;;
70705;SDS011;59320;52.316;10.870;2023-04-26T04:14:38;13.32;;;2.90;;
70705;SDS011;59320;52.316;10.870;2023-04-26T04:17:06;12.15;;;3.17;;
70705;SDS011;59320;52.316;10.870;2023-04-26T04:19:33;12.98;;;3.15;;
70705;SDS011;59320;52.316;10.870;2023-04-26T04:22:00;11.25;;;2.88;;
70705;SDS011;59320;52.316;10.870;2023-04-26T04:24:28;12.32;;;3.25;;
70705;SDS011;59320;52.316;10.870;2023-04-26T04:26:55;9.50;;;3.40;;
70705;SDS011;59320;52.316;10.870;2023-04-26T04:29:23;10.23;;;2.80;;
70705;SDS011;59320;52.316;10.870;2023-04-26T04:31:50;6.20;;;2.58;;
70705;SDS011;59320;52.316;10.870;2023-04-26T04:34:18;11.75;;;3.35;;
70705;SDS011;59320;52.316;10.870;2023-04-26T04:36:46;10.70;;;3.33;;
70705;SDS011;59320;52.316;10.870;2023-04-26T04:39:13;12.27;;;2.75;;
70705;SDS011;59320;52.316;10.870;2023-04-26T04:41:42;7.38;;;2.92;;
70705;SDS011;59320;52.316;10.870;2023-04-26T04:44:12;10.63;;;3.40;;
70705;SDS011;59320;52.316;10.870;2023-04-26T04:46:41;7.65;;;2.83;;
70705;SDS011;59320;52.316;10.870;2023-04-26T04:49:09;10.82;;;2.95;;
70705;SDS011;59320;52.316;10.870;2023-04-26T04:51:39;13.57;;;3.65;;
70705;SDS011;59320;52.316;10.870;2023-04-26T04:54:09;11.77;;;3.33;;
70705;SDS011;59320;52.316;10.870;2023-04-26T04:56:37;7.93;;;2.80;;
70705;SDS011;59320;52.316;10.870;2023-04-26T04:59:04;12.95;;;3.28;;
70705;SDS011;59320;52.316;10.870;2023-04-26T05:01:32;8.93;;;2.90;;
70705;SDS011;59320;52.316;10.870;2023-04-26T05:04:04;11.40;;;3.25;;
70705;SDS011;59320;52.316;10.870;2023-04-26T05:06:32;11.43;;;3.20;;
70705;SDS011;59320;52.316;10.870;2023-04-26T05:09:01;11.38;;;3.63;;
70705;SDS011;59320;52.316;10.870;2023-04-26T05:11:30;12.63;;;2.85;;
70705;SDS011;59320;52.316;10.870;2023-04-26T05:13:58;6.88;;;2.88;;
70705;SDS011;59320;52.316;10.870;2023-04-26T05:16:25;8.80;;;2.75;;
70705;SDS011;59320;52.316;10.870;2023-04-26T05:18:53;11.50;;;3.15;;
70705;SDS011;59320;52.316;10.870;2023-04-26T05:21:20;11.00;;;3.33;;
70705;SDS011;59320;52.316;10.870;2023-04-26T05:23:48;8.82;;;3.45;;
70705;SDS011;59320;52.316;10.870;2023-04-26T05:26:17;12.43;;;3.22;;
70705;SDS011;59320;52.316;10.870;2023-04-26T05:28:52;11.75;;;3.03;;
70705;SDS011;59320;52.316;10.870;2023-04-26T05:31:30;11.77;;;3.30;;
70705;SDS011;59320;52.316;10.870;2023-04-26T05:34:17;14.48;;;3.55;;
70705;SDS011;59320;52.316;10.870;2023-04-26T05:36:48;12.65;;;3.22;;
70705;SDS011;59320;52.316;10.870;2023-04-26T05:39:16;9.27;;;2.90;;
70705;SDS011;59320;52.316;10.870;2023-04-26T05:41:46;7.97;;;3.28;;
70705;SDS011;59320;52.316;10.870;2023-04-26T05:44:13;10.52;;;3.65;;
70705;SDS011;59320;52.316;10.870;2023-04-26T05:46:41;17.98;;;3.70;;
70705;SDS011;59320;52.316;10.870;2023-04-26T05:49:09;8.18;;;2.92;;
70705;SDS011;59320;52.316;10.870;2023-04-26T05:51:37;7.60;;;2.47;;
70705;SDS011;59320;52.316;10.870;2023-04-26T05:54:04;8.60;;;3.05;;
70705;SDS011;59320;52.316;10.870;2023-04-26T05:56:32;14.70;;;3.65;;
70705;SDS011;59320;52.316;10.870;2023-04-26T05:59:00;11.40;;;3.20;;
70705;SDS011;59320;52.316;10.870;2023-04-26T06:01:27;8.73;;;3.10;;
70705;SDS011;59320;52.316;10.870;2023-04-26T06:03:54;12.52;;;3.50;;
70705;SDS011;59320;52.316;10.870;2023-04-26T06:06:22;15.07;;;4.13;;
70705;SDS011;59320;52.316;10.870;2023-04-26T06:08:49;13.32;;;3.28;;
70705;SDS011;59320;52.316;10.870;2023-04-26T06:11:16;10.15;;;3.22;;
70705;SDS011;59320;52.316;10.870;2023-04-26T06:13:45;8.57;;;3.47;;
70705;SDS011;59320;52.316;10.870;2023-04-26T06:16:14;8.30;;;3.63;;
70705;SDS011;59320;52.316;10.870;2023-04-26T06:18:41;12.70;;;3.28;;
70705;SDS011;59320;52.316;10.870;2023-04-26T06:21:08;12.35;;;3.40;;
70705;SDS011;59320;52.316;10.870;2023-04-26T06:23:35;7.78;;;3.10;;
70705;SDS011;59320;52.316;10.870;2023-04-26T06:26:02;11.43;;;3.58;;
70705;SDS011;59320;52.316;10.870;2023-04-26T06:28:30;10.68;;;3.78;;
70705;SDS011;59320;52.316;10.870;2023-04-26T06:30:57;8.60;;;3.17;;
70705;SDS011;59320;52.316;10.870;2023-04-26T06:33:26;11.90;;;3.38;;
70705;SDS011;59320;52.316;10.870;2023-04-26T06:35:53;10.13;;;3.15;;
70705;SDS011;59320;52.316;10.870;2023-04-26T06:38:20;10.32;;;3.50;;
70705;SDS011;59320;52.316;10.870;2023-04-26T06:40:47;9.90;;;3.10;;
70705;SDS011;59320;52.316;10.870;2023-04-26T06:43:15;13.48;;;2.95;;
70705;SDS011;59320;52.316;10.870;2023-04-26T06:45:50;14.32;;;3.90;;
70705;SDS011;59320;52.316;10.870;2023-04-26T06:48:18;13.18;;;3.80;;
70705;SDS011;59320;52.316;10.870;2023-04-26T06:50:46;18.48;;;3.50;;
70705;SDS011;59320;52.316;10.870;2023-04-26T06:53:14;9.75;;;2.83;;
70705;SDS011;59320;52.316;10.870;2023-04-26T06:55:41;12.70;;;3.80;;
70705;SDS011;59320;52.316;10.870;2023-04-26T06:58:08;7.72;;;3.03;;
70705;SDS011;59320;52.316;10.870;2023-04-26T07:00:35;11.70;;;3.65;;
70705;SDS011;59320;52.316;10.870;2023-04-26T07:03:02;17.60;;;4.10;;
70705;SDS011;59320;52.316;10.870;2023-04-26T07:05:29;15.60;;;3.20;;
70705;SDS011;59320;52.316;10.870;2023-04-26T07:07:58;9.48;;;2.85;;
70705;SDS011;59320;52.316;10.870;2023-04-26T07:10:25;8.48;;;2.92;;
70705;SDS011;59320;52.316;10.870;2023-04-26T07:12:52;8.90;;;3.08;;
70705;SDS011;59320;52.316;10.870;2023-04-26T07:15:19;9.15;;;2.80;;
70705;SDS011;59320;52.316;10.870;2023-04-26T07:17:46;10.15;;;2.80;;
70705;SDS011;59320;52.316;10.870;2023-04-26T07:20:13;12.27;;;3.63;;
70705;SDS011;59320;52.316;10.870;2023-04-26T07:22:44;11.52;;;3.60;;
70705;SDS011;59320;52.316;10.870;2023-04-26T07:25:12;8.85;;;2.97;;
70705;SDS011;59320;52.316;10.870;2023-04-26T07:27:39;10.60;;;3.00;;
70705;SDS011;59320;52.316;10.870;2023-04-26T07:30:07;11.27;;;2.70;;
70705;SDS011;59320;52.316;10.870;2023-04-26T07:32:35;9.65;;;2.80;;
70705;SDS011;59320;52.316;10.870;2023-04-26T07:35:04;10.77;;;3.25;;
70705;SDS011;59320;52.316;10.870;2023-04-26T07:37:32;15.10;;;3.25;;
70705;SDS011;59320;52.316;10.870;2023-04-26T07:39:59;11.52;;;3.38;;
70705;SDS011;59320;52.316;10.870;2023-04-26T07:42:28;14.63;;;3.00;;
70705;SDS011;59320;52.316;10.870;2023-04-26T07:44:55;8.30;;;2.80;;
70705;SDS011;59320;52.316;10.870;2023-04-26T07:47:22;12.95;;;3.10;;
70705;SDS011;59320;52.316;10.870;2023-04-26T07:49:51;8.75;;;2.90;;
70705;SDS011;59320;52.316;10.870;2023-04-26T07:52:19;5.90;;;2.60;;
70705;SDS011;59320;52.316;10.870;2023-04-26T07:54:46;9.85;;;3.05;;
70705;SDS011;59320;52.316;10.870;2023-04-26T07:57:13;12.10;;;2.88;;
70705;SDS011;59320;52.316;10.870;2023-04-26T07:59:42;14.75;;;3.58;;
70705;SDS011;59320;52.316;10.870;2023-04-26T08:02:09;12.55;;;3.42;;
70705;SDS011;59320;52.316;10.870;2023-04-26T08:04:36;10.35;;;3.28;;
70705;SDS011;59320;52.316;10.870;2023-04-26T08:07:03;14.70;;;3.53;;
70705;SDS011;59320;52.316;10.870;2023-04-26T08:09:30;12.82;;;3.22;;
70705;SDS011;59320;52.316;10.870;2023-04-26T08:11:57;14.25;;;2.97;;
70705;SDS011;59320;52.316;10.870;2023-04-26T08:14:24;12.57;;;3.15;;
70705;SDS011;59320;52.316;10.870;2023-04-26T08:16:54;11.73;;;3.45;;
70705;SDS011;59320;52.316;10.870;2023-04-26T08:19:21;14.48;;;3.10;;
70705;SDS011;59320;52.316;10.870;2023-04-26T08:21:48;11.95;;;3.38;;
70705;SDS011;59320;52.316;10.870;2023-04-26T08:24:15;9.50;;;2.83;;
70705;SDS011;59320;52.316;10.870;2023-04-26T08:26:42;11.70;;;3.38;;
70705;SDS011;59320;52.316;10.870;2023-04-26T08:29:09;12.13;;;3.22;;
70705;SDS011;59320;52.316;10.870;2023-04-26T08:31:36;12.52;;;3.63;;
70705;SDS011;59320;52.316;10.870;2023-04-26T08:34:05;8.35;;;2.70;;
70705;SDS011;59320;52.316;10.870;2023-04-26T08:36:34;10.43;;;3.28;;
70705;SDS011;59320;52.316;10.870;2023-04-26T08:39:02;15.55;;;4.18;;
70705;SDS011;59320;52.316;10.870;2023-04-26T08:41:30;8.13;;;2.92;;
70705;SDS011;59320;52.316;10.870;2023-04-26T08:44:02;7.15;;;2.83;;
70705;SDS011;59320;52.316;10.870;2023-04-26T08:46:31;5.43;;;2.63;;
70705;SDS011;59320;52.316;10.870;2023-04-26T08:49:12;7.93;;;2.42;;
70705;SDS011;59320;52.316;10.870;2023-04-26T08:51:45;11.70;;;2.92;;
70705;SDS011;59320;52.316;10.870;2023-04-26T08:54:13;7.50;;;2.45;;
70705;SDS011;59320;52.316;10.870;2023-04-26T08:56:41;7.68;;;2.63;;
70705;SDS011;59320;52.316;10.870;2023-04-26T08:59:09;6.97;;;2.30;;
70705;SDS011;59320;52.316;10.870;2023-04-26T09:01:38;6.10;;;2.65;;
70705;SDS011;59320;52.316;10.870;2023-04-26T09:04:07;8.23;;;2.30;;
70705;SDS011;59320;52.316;10.870;2023-04-26T09:06:34;9.50;;;2.50;;
70705;SDS011;59320;52.316;10.870;2023-04-26T09:09:02;11.07;;;2.80;;
70705;SDS011;59320;52.316;10.870;2023-04-26T09:11:32;6.75;;;2.28;;
70705;SDS011;59320;52.316;10.870;2023-04-26T09:14:18;7.60;;;2.70;;
70705;SDS011;59320;52.316;10.870;2023-04-26T09:16:45;6.88;;;2.50;;
70705;SDS011;59320;52.316;10.870;2023-04-26T09:19:13;6.28;;;2.20;;
70705;SDS011;59320;52.316;10.870;2023-04-26T09:21:44;7.25;;;2.20;;
70705;SDS011;59320;52.316;10.870;2023-04-26T09:24:12;5.35;;;2.60;;
70705;SDS011;59320;52.316;10.870;2023-04-26T09:26:39;4.45;;;2.38;;
70705;SDS011;59320;52.316;10.870;2023-04-26T09:29:10;11.13;;;2.55;;
70705;SDS011;59320;52.316;10.870;2023-04-26T09:31:39;6.45;;;2.13;;
70705;SDS011;59320;52.316;10.870;2023-04-26T09:34:07;5.72;;;2.00;;
70705;SDS011;59320;52.316;10.870;2023-04-26T09:36:49;5.90;;;1.77;;
70705;SDS011;59320;52.316;10.870;2023-04-26T09:39:28;6.72;;;2.20;;
70705;SDS011;59320;52.316;10.870;2023-04-26T09:41:59;5.43;;;2.33;;
70705;SDS011;59320;52.316;10.870;2023-04-26T09:44:27;6.20;;;2.05;;
70705;SDS011;59320;52.316;10.870;2023-04-26T09:46:59;4.35;;;1.70;;
70705;SDS011;59320;52.316;10.870;2023-04-26T09:49:27;5.55;;;2.05;;
70705;SDS011;59320;52.316;10.870;2023-04-26T09:52:04;6.75;;;2.05;;
70705;SDS011;59320;52.316;10.870;2023-04-26T09:54:38;6.55;;;1.70;;
70705;SDS011;59320;52.316;10.870;2023-04-26T09:57:07;7.35;;;2.20;;
70705;SDS011;59320;52.316;10.870;2023-04-26T09:59:38;5.05;;;2.00;;
70705;SDS011;59320;52.316;10.870;2023-04-26T10:02:07;6.95;;;2.25;;
70705;SDS011;59320;52.316;10.870;2023-04-26T10:04:40;8.50;;;2.00;;
70705;SDS011;59320;52.316;10.870;2023-04-26T10:07:11;5.90;;;1.98;;
70705;SDS011;59320;52.316;10.870;2023-04-26T10:09:39;6.80;;;2.40;;
70705;SDS011;59320;52.316;10.870;2023-04-26T10:12:07;6.35;;;1.90;;
70705;SDS011;59320;52.316;10.870;2023-04-26T10:14:35;4.07;;;1.92;;
70705;SDS011;59320;52.316;10.870;2023-04-26T10:17:03;6.38;;;1.65;;
70705;SDS011;59320;52.316;10.870;2023-04-26T10:19:30;4.28;;;1.92;;
70705;SDS011;59320;52.316;10.870;2023-04-26T10:22:00;6.18;;;2.58;;
70705;SDS011;59320;52.316;10.870;2023-04-26T10:24:31;5.53;;;2.22;;
70705;SDS011;59320;52.316;10.870;2023-04-26T10:27:00;8.07;;;2.30;;
70705;SDS011;59320;52.316;10.870;2023-04-26T10:32:31;6.88;;;1.95;;
70705;SDS011;59320;52.316;10.870;2023-04-26T10:35:08;4.13;;;2.10;;
70705;SDS011;59320;52.316;10.870;2023-04-26T10:37:36;5.47;;;1.90;;
70705;SDS011;59320;52.316;10.870;2023-04-26T10:40:29;6.55;;;2.42;;
70705;SDS011;59320;52.316;10.870;2023-04-26T10:45:56;5.10;;;1.88;;
70705;SDS011;59320;52.316;10.870;2023-04-26T10:48:27;3.58;;;1.70;;
70705;SDS011;59320;52.316;10.870;2023-04-26T10:51:08;7.55;;;1.80;;
70705;SDS011;59320;52.316;10.870;2023-04-26T10:59:20;4.03;;;1.77;;
70705;SDS011;59320;52.316;10.870;2023-04-26T11:01:47;4.80;;;1.60;;
70705;SDS011;59320;52.316;10.870;2023-04-26T11:04:14;5.25;;;1.48;;
70705;SDS011;59320;52.316;10.870;2023-04-26T11:06:48;5.60;;;1.67;;
70705;SDS011;59320;52.316;10.870;2023-04-26T11:12:00;2.08;;;1.40;;
70705;SDS011;59320;52.316;10.870;2023-04-26T11:14:29;6.55;;;1.92;;
70705;SDS011;59320;52.316;10.870;2023-04-26T11:16:56;4.82;;;1.80;;
70705;SDS011;59320;52.316;10.870;2023-04-26T11:19:23;4.05;;;2.05;;
70705;SDS011;59320;52.316;10.870;2023-04-26T11:21:52;4.25;;;1.60;;
70705;SDS011;59320;52.316;10.870;2023-04-26T11:24:23;6.03;;;2.20;;
70705;SDS011;59320;52.316;10.870;2023-04-26T11:26:51;10.40;;;2.15;;
70705;SDS011;59320;52.316;10.870;2023-04-26T11:29:19;5.55;;;2.00;;
70705;SDS011;59320;52.316;10.870;2023-04-26T11:31:50;7.43;;;1.67;;
70705;SDS011;59320;52.316;10.870;2023-04-26T11:34:19;5.38;;;1.80;;
70705;SDS011;59320;52.316;10.870;2023-04-26T11:36:49;6.80;;;2.05;;
70705;SDS011;59320;52.316;10.870;2023-04-26T11:39:20;5.13;;;1.90;;
70705;SDS011;59320;52.316;10.870;2023-04-26T11:41:48;5.03;;;1.95;;
70705;SDS011;59320;52.316;10.870;2023-04-26T11:44:19;5.15;;;1.88;;
70705;SDS011;59320;52.316;10.870;2023-04-26T11:46:47;7.38;;;1.95;;
70705;SDS011;59320;52.316;10.870;2023-04-26T11:49:15;8.07;;;2.25;;
70705;SDS011;59320;52.316;10.870;2023-04-26T11:51:43;5.88;;;1.77;;
70705;SDS011;59320;52.316;10.870;2023-04-26T11:54:25;7.32;;;1.98;;
70705;SDS011;59320;52.316;10.870;2023-04-26T11:56:53;6.25;;;1.90;;
70705;SDS011;59320;52.316;10.870;2023-04-26T11:59:23;3.45;;;1.80;;
70705;SDS011;59320;52.316;10.870;2023-04-26T12:01:51;4.63;;;1.70;;
70705;SDS011;59320;52.316;10.870;2023-04-26T12:04:19;4.32;;;1.88;;
70705;SDS011;59320;52.316;10.870;2023-04-26T12:06:53;3.45;;;1.60;;
70705;SDS011;59320;52.316;10.870;2023-04-26T12:09:21;3.75;;;1.70;;
70705;SDS011;59320;52.316;10.870;2023-04-26T12:11:52;4.93;;;1.90;;
70705;SDS011;59320;52.316;10.870;2023-04-26T12:14:28;6.18;;;2.13;;
70705;SDS011;59320;52.316;10.870;2023-04-26T12:16:57;3.55;;;1.80;;
70705;SDS011;59320;52.316;10.870;2023-04-26T12:19:26;5.30;;;1.85;;
70705;SDS011;59320;52.316;10.870;2023-04-26T12:21:53;4.90;;;1.98;;
70705;SDS011;59320;52.316;10.870;2023-04-26T12:24:21;4.25;;;2.13;;
70705;SDS011;59320;52.316;10.870;2023-04-26T12:26:49;5.68;;;1.83;;
70705;SDS011;59320;52.316;10.870;2023-04-26T12:29:16;5.13;;;1.77;;
70705;SDS011;59320;52.316;10.870;2023-04-26T12:31:44;4.10;;;1.65;;
70705;SDS011;59320;52.316;10.870;2023-04-26T12:34:11;4.82;;;1.85;;
70705;SDS011;59320;52.316;10.870;2023-04-26T12:36:39;8.25;;;2.17;;
70705;SDS011;59320;52.316;10.870;2023-04-26T12:39:08;5.95;;;1.75;;
70705;SDS011;59320;52.316;10.870;2023-04-26T12:41:37;3.83;;;1.70;;
70705;SDS011;59320;52.316;10.870;2023-04-26T12:44:05;5.25;;;1.85;;
70705;SDS011;59320;52.316;10.870;2023-04-26T12:46:32;2.53;;;1.55;;
70705;SDS011;59320;52.316;10.870;2023-04-26T12:49:00;3.47;;;2.00;;
70705;SDS011;59320;52.316;10.870;2023-04-26T12:51:28;5.68;;;1.98;;
70705;SDS011;59320;52.316;10.870;2023-04-26T12:53:56;4.43;;;1.92;;
70705;SDS011;59320;52.316;10.870;2023-04-26T12:56:23;6.90;;;2.13;;
70705;SDS011;59320;52.316;10.870;2023-04-26T12:58:50;7.63;;;2.28;;
70705;SDS011;59320;52.316;10.870;2023-04-26T13:01:17;7.15;;;2.45;;
70705;SDS011;59320;52.316;10.870;2023-04-26T13:03:45;6.20;;;2.30;;
70705;SDS011;59320;52.316;10.870;2023-04-26T13:06:13;5.63;;;2.45;;
70705;SDS011;59320;52.316;10.870;2023-04-26T13:08:40;6.30;;;2.47;;
70705;SDS011;59320;52.316;10.870;2023-04-26T13:11:07;3.85;;;2.33;;
70705;SDS011;59320;52.316;10.870;2023-04-26T13:13:34;4.90;;;2.00;;
70705;SDS011;59320;52.316;10.870;2023-04-26T13:16:02;5.20;;;2.03;;
70705;SDS011;59320;52.316;10.870;2023-04-26T13:18:29;6.40;;;2.28;;
70705;SDS011;59320;52.316;10.870;2023-04-26T13:20:56;5.75;;;2.15;;
70705;SDS011;59320;52.316;10.870;2023-04-26T13:23:24;2.83;;;1.98;;
70705;SDS011;59320;52.316;10.870;2023-04-26T13:25:51;3.60;;;1.70;;
70705;SDS011;59320;52.316;10.870;2023-04-26T13:28:18;2.58;;;1.85;;
70705;SDS011;59320;52.316;10.870;2023-04-26T13:30:45;4.78;;;1.83;;
70705;SDS011;59320;52.316;10.870;2023-04-26T13:33:12;3.72;;;1.85;;
70705;SDS011;59320;52.316;10.870;2023-04-26T13:35:39;6.70;;;1.90;;
70705;SDS011;59320;52.316;10.870;2023-04-26T13:38:06;5.43;;;2.20;;
70705;SDS011;59320;52.316;10.870;2023-04-26T13:40:35;6.18;;;2.67;;
70705;SDS011;59320;52.316;10.870;2023-04-26T13:43:02;2.78;;;1.67;;
70705;SDS011;59320;52.316;10.870;2023-04-26T13:45:29;4.35;;;2.13;;
70705;SDS011;59320;52.316;10.870;2023-04-26T13:47:56;3.92;;;2.30;;
70705;SDS011;59320;52.316;10.870;2023-04-26T13:50:23;4.25;;;2.00;;
70705;SDS011;59320;52.316;10.870;2023-04-26T13:52:51;5.60;;;2.50;;
70705;SDS011;59320;52.316;10.870;2023-04-26T13:55:18;4.60;;;1.95;;
70705;SDS011;59320;52.316;10.870;2023-04-26T13:57:46;3.22;;;2.15;;
70705;SDS011;59320;52.316;10.870;2023-04-26T14:00:14;6.05;;;2.20;;
70705;SDS011;59320;52.316;10.870;2023-04-26T14:02:42;3.00;;;1.85;;
70705;SDS011;59320;52.316;10.870;2023-04-26T14:05:09;5.32;;;2.10;;
70705;SDS011;59320;52.316;10.870;2023-04-26T14:07:36;10.65;;;2.25;;
70705;SDS011;59320;52.316;10.870;2023-04-26T14:10:03;6.57;;;2.40;;
70705;SDS011;59320;52.316;10.870;2023-04-26T14:12:30;4.03;;;1.90;;
70705;SDS011;59320;52.316;10.870;2023-04-26T14:15:00;7.57;;;1.88;;
70705;SDS011;59320;52.316;10.870;2023-04-26T14:17:30;3.80;;;1.90;;
70705;SDS011;59320;52.316;10.870;2023-04-26T14:19:57;3.63;;;1.95;;
70705;SDS011;59320;52.316;10.870;2023-04-26T14:22:25;4.95;;;1.92;;
70705;SDS011;59320;52.316;10.870;2023-04-26T14:24:52;3.80;;;2.10;;
70705;SDS011;59320;52.316;10.870;2023-04-26T14:27:19;3.80;;;2.10;;
70705;SDS011;59320;52.316;10.870;2023-04-26T14:29:46;6.22;;;2.03;;
70705;SDS011;59320;52.316;10.870;2023-04-26T14:32:15;7.95;;;2.30;;
70705;SDS011;59320;52.316;10.870;2023-04-26T14:34:42;4.05;;;2.33;;
70705;SDS011;59320;52.316;10.870;2023-04-26T14:37:09;4.28;;;2.13;;
70705;SDS011;59320;52.316;10.870;2023-04-26T14:39:38;2.08;;;1.63;;
70705;SDS011;59320;52.316;10.870;2023-04-26T14:42:07;2.72;;;1.67;;
70705;SDS011;59320;52.316;10.870;2023-04-26T14:44:34;2.95;;;1.60;;
70705;SDS011;59320;52.316;10.870;2023-04-26T14:47:01;3.35;;;1.60;;
70705;SDS011;59320;52.316;10.870;2023-04-26T14:49:30;4.30;;;1.70;;
70705;SDS011;59320;52.316;10.870;2023-04-26T14:51:57;8.85;;;1.88;;